sensor_id;sensor_type;location;lat;lon;timestamp;P1;durP1;ratioP1;P2;durP2;ratioP2
35048;SDS011;21236;48.740;-3.446;2022-11-23T00:00:58;20.67;;;4.28;;
35048;SDS011;21236;48.740;-3.446;2022-11-23T00:03:24;14.73;;;2.88;;
35048;SDS011;21236;48.740;-3.446;2022-11-23T00:05:50;14.15;;;2.97;;
35048;SDS011;21236;48.740;-3.446;2022-11-23T00:08:16;11.07;;;2.95;;
35048;SDS011;21236;48.740;-3.446;2022-11-23T00:10:42;12.35;;;2.95;;
35048;SDS011;21236;48.740;-3.446;2022-11-23T00:13:08;14.82;;;2.85;;
35048;SDS011;21236;48.740;-3.446;2022-11-23T00:15:34;14.38;;;3.17;;
35048;SDS011;21236;48.740;-3.446;2022-11-23T00:18:00;12.43;;;3.83;;
35048;SDS011;21236;48.740;-3.446;2022-11-23T00:20:26;16.98;;;4.07;;
35048;SDS011;21236;48.740;-3.446;2022-11-23T00:22:52;16.27;;;2.63;;
35048;SDS011;21236;48.740;-3.446;2022-11-23T00:25:19;14.25;;;3.78;;
35048;SDS011;21236;48.740;-3.446;2022-11-23T00:27:45;17.00;;;2.58;;
35048;SDS011;21236;48.740;-3.446;2022-11-23T00:30:11;11.95;;;2.90;;
35048;SDS011;21236;48.740;-3.446;2022-11-23T00:32:37;10.10;;;2.00;;
35048;SDS011;21236;48.740;-3.446;2022-11-23T00:35:05;17.40;;;2.72;;
35048;SDS011;21236;48.740;-3.446;2022-11-23T00:37:31;5.18;;;1.77;;
35048;SDS011;21236;48.740;-3.446;2022-11-23T00:39:57;9.02;;;2.05;;
35048;SDS011;21236;48.740;-3.446;2022-11-23T00:42:23;6.00;;;2.20;;
35048;SDS011;21236;48.740;-3.446;2022-11-23T00:44:49;9.68;;;1.85;;
35048;SDS011;21236;48.740;-3.446;2022-11-23T00:47:15;7.53;;;1.40;;
35048;SDS011;21236;48.740;-3.446;2022-11-23T00:49:42;9.90;;;1.58;;
35048;SDS011;21236;48.740;-3.446;2022-11-23T00:52:08;8.32;;;1.38;;
35048;SDS011;21236;48.740;-3.446;2022-11-23T00:54:34;4.90;;;1.75;;
35048;SDS011;21236;48.740;-3.446;2022-11-23T00:57:00;5.53;;;1.98;;
35048;SDS011;21236;48.740;-3.446;2022-11-23T00:59:26;10.55;;;1.63;;
35048;SDS011;21236;48.740;-3.446;2022-11-23T01:01:53;7.35;;;1.70;;
35048;SDS011;21236;48.740;-3.446;2022-11-23T01:04:19;4.88;;;1.38;;
35048;SDS011;21236;48.740;-3.446;2022-11-23T01:06:45;5.55;;;1.20;;
35048;SDS011;21236;48.740;-3.446;2022-11-23T01:09:15;5.07;;;1.35;;
35048;SDS011;21236;48.740;-3.446;2022-11-23T01:11:49;7.53;;;1.10;;
35048;SDS011;21236;48.740;-3.446;2022-11-23T01:14:15;7.03;;;1.05;;
35048;SDS011;21236;48.740;-3.446;2022-11-23T01:16:41;7.43;;;2.28;;
35048;SDS011;21236;48.740;-3.446;2022-11-23T01:19:15;2.13;;;0.93;;
35048;SDS011;21236;48.740;-3.446;2022-11-23T01:21:45;6.78;;;1.08;;
35048;SDS011;21236;48.740;-3.446;2022-11-23T01:24:12;3.80;;;0.88;;
35048;SDS011;21236;48.740;-3.446;2022-11-23T01:26:39;2.55;;;1.02;;
35048;SDS011;21236;48.740;-3.446;2022-11-23T01:29:05;5.13;;;0.75;;
35048;SDS011;21236;48.740;-3.446;2022-11-23T01:31:32;2.75;;;0.93;;
35048;SDS011;21236;48.740;-3.446;2022-11-23T01:33:59;2.53;;;1.13;;
35048;SDS011;21236;48.740;-3.446;2022-11-23T01:36:27;1.42;;;0.90;;
35048;SDS011;21236;48.740;-3.446;2022-11-23T01:38:53;2.53;;;0.70;;
35048;SDS011;21236;48.740;-3.446;2022-11-23T01:41:27;3.38;;;1.00;;
35048;SDS011;21236;48.740;-3.446;2022-11-23T01:43:53;0.90;;;0.60;;
35048;SDS011;21236;48.740;-3.446;2022-11-23T01:46:20;3.15;;;0.90;;
35048;SDS011;21236;48.740;-3.446;2022-11-23T01:48:56;0.88;;;0.75;;
35048;SDS011;21236;48.740;-3.446;2022-11-23T01:51:38;1.35;;;0.90;;
35048;SDS011;21236;48.740;-3.446;2022-11-23T01:54:07;1.35;;;0.75;;
35048;SDS011;21236;48.740;-3.446;2022-11-23T01:56:35;1.40;;;1.00;;
35048;SDS011;21236;48.740;-3.446;2022-11-23T01:59:03;1.98;;;0.77;;
35048;SDS011;21236;48.740;-3.446;2022-11-23T02:01:32;0.70;;;0.60;;
35048;SDS011;21236;48.740;-3.446;2022-11-23T02:03:59;0.85;;;0.77;;
35048;SDS011;21236;48.740;-3.446;2022-11-23T02:06:26;1.30;;;1.10;;
35048;SDS011;21236;48.740;-3.446;2022-11-23T02:08:52;1.23;;;0.80;;
35048;SDS011;21236;48.740;-3.446;2022-11-23T02:11:19;1.13;;;1.00;;
35048;SDS011;21236;48.740;-3.446;2022-11-23T02:13:46;1.40;;;0.80;;
35048;SDS011;21236;48.740;-3.446;2022-11-23T02:16:13;1.63;;;0.70;;
35048;SDS011;21236;48.740;-3.446;2022-11-23T02:18:40;2.20;;;0.85;;
35048;SDS011;21236;48.740;-3.446;2022-11-23T02:21:09;0.90;;;0.60;;
35048;SDS011;21236;48.740;-3.446;2022-11-23T02:26:30;3.03;;;0.80;;
35048;SDS011;21236;48.740;-3.446;2022-11-23T02:29:05;2.25;;;0.50;;
35048;SDS011;21236;48.740;-3.446;2022-11-23T02:31:33;1.08;;;0.70;;
35048;SDS011;21236;48.740;-3.446;2022-11-23T02:33:59;2.17;;;1.10;;
35048;SDS011;21236;48.740;-3.446;2022-11-23T02:38:52;0.77;;;0.50;;
35048;SDS011;21236;48.740;-3.446;2022-11-23T02:41:20;1.60;;;0.70;;
35048;SDS011;21236;48.740;-3.446;2022-11-23T02:43:47;1.10;;;0.60;;
35048;SDS011;21236;48.740;-3.446;2022-11-23T02:46:15;1.30;;;0.63;;
35048;SDS011;21236;48.740;-3.446;2022-11-23T02:48:42;0.40;;;0.40;;
35048;SDS011;21236;48.740;-3.446;2022-11-23T02:51:08;0.50;;;0.40;;
35048;SDS011;21236;48.740;-3.446;2022-11-23T02:53:34;1.95;;;0.35;;
35048;SDS011;21236;48.740;-3.446;2022-11-23T02:56:00;0.68;;;0.43;;
35048;SDS011;21236;48.740;-3.446;2022-11-23T02:58:26;0.25;;;0.22;;
35048;SDS011;21236;48.740;-3.446;2022-11-23T03:00:52;0.20;;;0.20;;
35048;SDS011;21236;48.740;-3.446;2022-11-23T03:03:18;0.35;;;0.20;;
35048;SDS011;21236;48.740;-3.446;2022-11-23T03:05:44;0.30;;;0.30;;
35048;SDS011;21236;48.740;-3.446;2022-11-23T03:08:10;0.77;;;0.43;;
35048;SDS011;21236;48.740;-3.446;2022-11-23T03:10:38;0.20;;;0.13;;
35048;SDS011;21236;48.740;-3.446;2022-11-23T03:13:04;0.25;;;0.20;;
35048;SDS011;21236;48.740;-3.446;2022-11-23T03:15:34;0.88;;;0.30;;
35048;SDS011;21236;48.740;-3.446;2022-11-23T03:18:02;1.13;;;0.32;;
35048;SDS011;21236;48.740;-3.446;2022-11-23T03:20:29;2.00;;;0.40;;
35048;SDS011;21236;48.740;-3.446;2022-11-23T03:22:56;4.32;;;0.60;;
35048;SDS011;21236;48.740;-3.446;2022-11-23T03:25:23;5.25;;;1.48;;
35048;SDS011;21236;48.740;-3.446;2022-11-23T03:27:52;2.92;;;0.70;;
35048;SDS011;21236;48.740;-3.446;2022-11-23T03:30:19;9.15;;;1.52;;
35048;SDS011;21236;48.740;-3.446;2022-11-23T03:32:46;6.97;;;1.10;;
35048;SDS011;21236;48.740;-3.446;2022-11-23T03:35:13;7.72;;;1.17;;
35048;SDS011;21236;48.740;-3.446;2022-11-23T03:38:14;10.13;;;1.73;;
35048;SDS011;21236;48.740;-3.446;2022-11-23T03:40:44;11.32;;;1.60;;
35048;SDS011;21236;48.740;-3.446;2022-11-23T03:43:36;12.07;;;3.42;;
35048;SDS011;21236;48.740;-3.446;2022-11-23T03:46:03;16.45;;;2.42;;
35048;SDS011;21236;48.740;-3.446;2022-11-23T03:48:29;16.58;;;2.92;;
35048;SDS011;21236;48.740;-3.446;2022-11-23T03:50:56;18.20;;;4.13;;
35048;SDS011;21236;48.740;-3.446;2022-11-23T03:53:22;17.42;;;3.58;;
35048;SDS011;21236;48.740;-3.446;2022-11-23T03:55:48;18.33;;;3.28;;
35048;SDS011;21236;48.740;-3.446;2022-11-23T03:58:14;18.48;;;2.83;;
35048;SDS011;21236;48.740;-3.446;2022-11-23T04:00:40;30.30;;;3.65;;
35048;SDS011;21236;48.740;-3.446;2022-11-23T04:03:09;33.33;;;5.15;;
35048;SDS011;21236;48.740;-3.446;2022-11-23T04:06:04;28.48;;;6.07;;
35048;SDS011;21236;48.740;-3.446;2022-11-23T04:08:49;33.20;;;6.50;;
35048;SDS011;21236;48.740;-3.446;2022-11-23T04:11:25;26.83;;;4.45;;
35048;SDS011;21236;48.740;-3.446;2022-11-23T04:13:51;36.88;;;5.93;;
35048;SDS011;21236;48.740;-3.446;2022-11-23T04:16:17;36.65;;;5.38;;
35048;SDS011;21236;48.740;-3.446;2022-11-23T04:18:44;34.95;;;5.25;;
35048;SDS011;21236;48.740;-3.446;2022-11-23T04:21:10;24.02;;;5.22;;
35048;SDS011;21236;48.740;-3.446;2022-11-23T04:23:36;26.35;;;5.32;;
35048;SDS011;21236;48.740;-3.446;2022-11-23T04:26:05;42.50;;;5.40;;
35048;SDS011;21236;48.740;-3.446;2022-11-23T04:28:31;38.03;;;6.82;;
35048;SDS011;21236;48.740;-3.446;2022-11-23T04:30:58;36.33;;;5.35;;
35048;SDS011;21236;48.740;-3.446;2022-11-23T04:33:29;28.95;;;4.90;;
35048;SDS011;21236;48.740;-3.446;2022-11-23T04:35:56;30.70;;;4.80;;
35048;SDS011;21236;48.740;-3.446;2022-11-23T04:38:23;32.63;;;5.63;;
35048;SDS011;21236;48.740;-3.446;2022-11-23T04:40:49;32.92;;;6.65;;
35048;SDS011;21236;48.740;-3.446;2022-11-23T04:43:15;39.45;;;6.10;;
35048;SDS011;21236;48.740;-3.446;2022-11-23T04:45:42;36.80;;;5.07;;
35048;SDS011;21236;48.740;-3.446;2022-11-23T04:48:16;35.63;;;6.38;;
35048;SDS011;21236;48.740;-3.446;2022-11-23T04:50:43;36.47;;;5.78;;
35048;SDS011;21236;48.740;-3.446;2022-11-23T04:53:09;53.35;;;6.90;;
35048;SDS011;21236;48.740;-3.446;2022-11-23T04:55:41;45.80;;;8.68;;
35048;SDS011;21236;48.740;-3.446;2022-11-23T04:58:09;40.22;;;6.78;;
35048;SDS011;21236;48.740;-3.446;2022-11-23T05:00:35;40.78;;;7.00;;
35048;SDS011;21236;48.740;-3.446;2022-11-23T05:03:03;28.88;;;6.07;;
35048;SDS011;21236;48.740;-3.446;2022-11-23T05:05:36;34.08;;;7.03;;
35048;SDS011;21236;48.740;-3.446;2022-11-23T05:08:02;30.08;;;4.88;;
35048;SDS011;21236;48.740;-3.446;2022-11-23T05:10:49;41.22;;;6.15;;
35048;SDS011;21236;48.740;-3.446;2022-11-23T05:13:15;33.40;;;5.72;;
35048;SDS011;21236;48.740;-3.446;2022-11-23T05:15:42;22.90;;;4.45;;
35048;SDS011;21236;48.740;-3.446;2022-11-23T05:18:11;26.95;;;4.45;;
35048;SDS011;21236;48.740;-3.446;2022-11-23T05:20:38;30.80;;;5.60;;
35048;SDS011;21236;48.740;-3.446;2022-11-23T05:23:04;22.48;;;4.50;;
35048;SDS011;21236;48.740;-3.446;2022-11-23T05:25:32;20.65;;;3.50;;
35048;SDS011;21236;48.740;-3.446;2022-11-23T05:28:03;19.55;;;4.28;;
35048;SDS011;21236;48.740;-3.446;2022-11-23T05:30:29;16.75;;;3.42;;
35048;SDS011;21236;48.740;-3.446;2022-11-23T05:32:59;25.00;;;4.40;;
35048;SDS011;21236;48.740;-3.446;2022-11-23T05:35:27;13.57;;;3.05;;
35048;SDS011;21236;48.740;-3.446;2022-11-23T05:37:54;29.23;;;5.10;;
35048;SDS011;21236;48.740;-3.446;2022-11-23T05:40:20;26.10;;;3.65;;
35048;SDS011;21236;48.740;-3.446;2022-11-23T05:42:53;13.85;;;2.97;;
35048;SDS011;21236;48.740;-3.446;2022-11-23T05:45:20;19.67;;;3.70;;
35048;SDS011;21236;48.740;-3.446;2022-11-23T05:47:50;26.20;;;4.75;;
35048;SDS011;21236;48.740;-3.446;2022-11-23T05:53:09;22.13;;;5.00;;
35048;SDS011;21236;48.740;-3.446;2022-11-23T05:55:35;35.75;;;5.43;;
35048;SDS011;21236;48.740;-3.446;2022-11-23T05:58:01;33.13;;;4.75;;
35048;SDS011;21236;48.740;-3.446;2022-11-23T06:00:28;30.40;;;5.57;;
35048;SDS011;21236;48.740;-3.446;2022-11-23T06:03:00;39.28;;;6.80;;
35048;SDS011;21236;48.740;-3.446;2022-11-23T06:05:29;39.20;;;5.53;;
35048;SDS011;21236;48.740;-3.446;2022-11-23T06:07:56;33.55;;;7.63;;
35048;SDS011;21236;48.740;-3.446;2022-11-23T06:10:25;38.72;;;5.07;;
35048;SDS011;21236;48.740;-3.446;2022-11-23T07:05:46;26.50;;;4.10;;
35048;SDS011;21236;48.740;-3.446;2022-11-23T07:08:13;21.08;;;3.53;;
35048;SDS011;21236;48.740;-3.446;2022-11-23T07:10:39;27.33;;;4.38;;
35048;SDS011;21236;48.740;-3.446;2022-11-23T07:13:08;33.95;;;6.15;;
35048;SDS011;21236;48.740;-3.446;2022-11-23T07:15:35;25.52;;;4.75;;
35048;SDS011;21236;48.740;-3.446;2022-11-23T07:18:02;33.25;;;4.82;;
35048;SDS011;21236;48.740;-3.446;2022-11-23T07:20:29;32.80;;;4.47;;
35048;SDS011;21236;48.740;-3.446;2022-11-23T07:23:03;30.00;;;5.32;;
35048;SDS011;21236;48.740;-3.446;2022-11-23T07:25:31;22.45;;;4.57;;
35048;SDS011;21236;48.740;-3.446;2022-11-23T07:27:59;27.92;;;4.30;;
35048;SDS011;21236;48.740;-3.446;2022-11-23T07:30:25;33.88;;;6.20;;
35048;SDS011;21236;48.740;-3.446;2022-11-23T07:32:52;23.55;;;4.47;;
35048;SDS011;21236;48.740;-3.446;2022-11-23T07:35:19;40.55;;;5.70;;
35048;SDS011;21236;48.740;-3.446;2022-11-23T07:37:46;25.25;;;4.55;;
35048;SDS011;21236;48.740;-3.446;2022-11-23T07:40:13;28.77;;;4.40;;
35048;SDS011;21236;48.740;-3.446;2022-11-23T07:42:39;32.63;;;6.18;;
35048;SDS011;21236;48.740;-3.446;2022-11-23T07:45:05;33.78;;;4.70;;
35048;SDS011;21236;48.740;-3.446;2022-11-23T07:47:34;37.30;;;5.75;;
35048;SDS011;21236;48.740;-3.446;2022-11-23T07:50:00;26.17;;;6.43;;
35048;SDS011;21236;48.740;-3.446;2022-11-23T07:52:26;30.70;;;5.07;;
35048;SDS011;21236;48.740;-3.446;2022-11-23T07:54:52;38.15;;;5.85;;
35048;SDS011;21236;48.740;-3.446;2022-11-23T07:57:18;32.20;;;6.38;;
35048;SDS011;21236;48.740;-3.446;2022-11-23T07:59:44;29.42;;;6.35;;
35048;SDS011;21236;48.740;-3.446;2022-11-23T08:02:14;27.30;;;5.82;;
35048;SDS011;21236;48.740;-3.446;2022-11-23T08:04:40;22.85;;;5.40;;
35048;SDS011;21236;48.740;-3.446;2022-11-23T08:07:06;27.70;;;5.13;;
35048;SDS011;21236;48.740;-3.446;2022-11-23T08:09:32;30.63;;;5.78;;
35048;SDS011;21236;48.740;-3.446;2022-11-23T08:11:58;42.33;;;7.03;;
35048;SDS011;21236;48.740;-3.446;2022-11-23T08:14:24;36.72;;;6.25;;
35048;SDS011;21236;48.740;-3.446;2022-11-23T08:16:51;42.38;;;7.75;;
35048;SDS011;21236;48.740;-3.446;2022-11-23T08:19:17;40.75;;;6.82;;
35048;SDS011;21236;48.740;-3.446;2022-11-23T08:21:43;40.13;;;6.50;;
35048;SDS011;21236;48.740;-3.446;2022-11-23T08:24:10;39.65;;;6.30;;
35048;SDS011;21236;48.740;-3.446;2022-11-23T08:26:36;34.28;;;6.05;;
35048;SDS011;21236;48.740;-3.446;2022-11-23T08:29:02;26.75;;;5.82;;
35048;SDS011;21236;48.740;-3.446;2022-11-23T08:31:28;27.58;;;5.43;;
35048;SDS011;21236;48.740;-3.446;2022-11-23T08:33:55;31.88;;;6.72;;
35048;SDS011;21236;48.740;-3.446;2022-11-23T08:36:21;41.25;;;6.65;;
35048;SDS011;21236;48.740;-3.446;2022-11-23T08:38:47;35.72;;;6.47;;
35048;SDS011;21236;48.740;-3.446;2022-11-23T08:41:16;34.47;;;6.18;;
35048;SDS011;21236;48.740;-3.446;2022-11-23T08:43:48;36.50;;;6.97;;
35048;SDS011;21236;48.740;-3.446;2022-11-23T08:46:14;35.55;;;6.15;;
35048;SDS011;21236;48.740;-3.446;2022-11-23T08:48:40;37.25;;;5.68;;
35048;SDS011;21236;48.740;-3.446;2022-11-23T08:51:06;33.30;;;5.05;;
35048;SDS011;21236;48.740;-3.446;2022-11-23T08:53:33;36.05;;;7.68;;
35048;SDS011;21236;48.740;-3.446;2022-11-23T08:55:59;38.97;;;5.80;;
35048;SDS011;21236;48.740;-3.446;2022-11-23T08:58:25;30.58;;;5.30;;
35048;SDS011;21236;48.740;-3.446;2022-11-23T09:00:52;29.65;;;4.85;;
35048;SDS011;21236;48.740;-3.446;2022-11-23T09:03:18;28.60;;;6.47;;
35048;SDS011;21236;48.740;-3.446;2022-11-23T09:20:51;42.78;;;5.97;;
35048;SDS011;21236;48.740;-3.446;2022-11-23T09:23:17;27.48;;;4.65;;
35048;SDS011;21236;48.740;-3.446;2022-11-23T09:25:44;35.13;;;5.53;;
35048;SDS011;21236;48.740;-3.446;2022-11-23T09:28:14;28.75;;;4.45;;
35048;SDS011;21236;48.740;-3.446;2022-11-23T09:30:41;23.67;;;5.18;;
35048;SDS011;21236;48.740;-3.446;2022-11-23T09:33:07;36.40;;;5.20;;
35048;SDS011;21236;48.740;-3.446;2022-11-23T09:35:34;25.75;;;5.10;;
35048;SDS011;21236;48.740;-3.446;2022-11-23T09:38:00;36.40;;;5.78;;
35048;SDS011;21236;48.740;-3.446;2022-11-23T09:40:28;21.77;;;4.22;;
35048;SDS011;21236;48.740;-3.446;2022-11-23T09:45:46;29.23;;;6.82;;
35048;SDS011;21236;48.740;-3.446;2022-11-23T09:48:17;27.77;;;4.75;;
35048;SDS011;21236;48.740;-3.446;2022-11-23T09:50:48;24.65;;;4.97;;
35048;SDS011;21236;48.740;-3.446;2022-11-23T09:53:18;22.38;;;4.07;;
35048;SDS011;21236;48.740;-3.446;2022-11-23T09:55:47;19.70;;;4.70;;
35048;SDS011;21236;48.740;-3.446;2022-11-23T09:58:17;25.40;;;4.55;;
35048;SDS011;21236;48.740;-3.446;2022-11-23T10:00:49;30.23;;;4.72;;
35048;SDS011;21236;48.740;-3.446;2022-11-23T10:03:17;20.25;;;3.90;;
35048;SDS011;21236;48.740;-3.446;2022-11-23T10:05:49;38.15;;;6.07;;
35048;SDS011;21236;48.740;-3.446;2022-11-23T10:13:34;29.33;;;5.35;;
35048;SDS011;21236;48.740;-3.446;2022-11-23T10:16:12;22.88;;;4.43;;
35048;SDS011;21236;48.740;-3.446;2022-11-23T10:18:44;26.20;;;4.75;;
35048;SDS011;21236;48.740;-3.446;2022-11-23T10:23:54;32.70;;;6.15;;
35048;SDS011;21236;48.740;-3.446;2022-11-23T10:26:26;23.73;;;5.68;;
35048;SDS011;21236;48.740;-3.446;2022-11-23T10:28:53;28.27;;;5.55;;
35048;SDS011;21236;48.740;-3.446;2022-11-23T10:31:23;30.17;;;5.40;;
35048;SDS011;21236;48.740;-3.446;2022-11-23T10:36:27;33.10;;;5.75;;
35048;SDS011;21236;48.740;-3.446;2022-11-23T10:38:55;25.58;;;5.30;;
35048;SDS011;21236;48.740;-3.446;2022-11-23T10:41:22;26.48;;;5.70;;
35048;SDS011;21236;48.740;-3.446;2022-11-23T10:48:49;28.08;;;6.00;;
35048;SDS011;21236;48.740;-3.446;2022-11-23T10:51:20;28.25;;;5.28;;
35048;SDS011;21236;48.740;-3.446;2022-11-23T10:53:55;24.05;;;4.68;;
35048;SDS011;21236;48.740;-3.446;2022-11-23T10:56:21;26.15;;;5.68;;
35048;SDS011;21236;48.740;-3.446;2022-11-23T10:58:48;31.88;;;5.43;;
35048;SDS011;21236;48.740;-3.446;2022-11-23T11:01:15;31.10;;;4.90;;
35048;SDS011;21236;48.740;-3.446;2022-11-23T11:03:41;31.42;;;6.15;;
35048;SDS011;21236;48.740;-3.446;2022-11-23T11:06:07;32.85;;;4.70;;
35048;SDS011;21236;48.740;-3.446;2022-11-23T11:08:34;27.15;;;5.40;;
35048;SDS011;21236;48.740;-3.446;2022-11-23T11:11:05;27.77;;;5.13;;
35048;SDS011;21236;48.740;-3.446;2022-11-23T11:13:38;27.75;;;5.80;;
35048;SDS011;21236;48.740;-3.446;2022-11-23T11:16:07;30.40;;;5.35;;
35048;SDS011;21236;48.740;-3.446;2022-11-23T11:18:42;32.55;;;5.95;;
35048;SDS011;21236;48.740;-3.446;2022-11-23T11:21:16;27.77;;;5.13;;
35048;SDS011;21236;48.740;-3.446;2022-11-23T11:23:45;27.60;;;4.90;;
35048;SDS011;21236;48.740;-3.446;2022-11-23T11:26:19;26.50;;;5.72;;
35048;SDS011;21236;48.740;-3.446;2022-11-23T11:29:05;35.25;;;5.15;;
35048;SDS011;21236;48.740;-3.446;2022-11-23T11:31:49;34.58;;;5.90;;
35048;SDS011;21236;48.740;-3.446;2022-11-23T11:39:23;24.45;;;4.72;;
35048;SDS011;21236;48.740;-3.446;2022-11-23T11:41:51;34.70;;;5.82;;
35048;SDS011;21236;48.740;-3.446;2022-11-23T11:44:20;26.20;;;5.13;;
35048;SDS011;21236;48.740;-3.446;2022-11-23T11:46:52;34.33;;;6.88;;
35048;SDS011;21236;48.740;-3.446;2022-11-23T11:49:24;35.47;;;6.20;;
35048;SDS011;21236;48.740;-3.446;2022-11-23T11:51:58;28.43;;;5.43;;
35048;SDS011;21236;48.740;-3.446;2022-11-23T11:56:54;28.02;;;6.13;;
35048;SDS011;21236;48.740;-3.446;2022-11-23T11:59:27;26.45;;;5.10;;
35048;SDS011;21236;48.740;-3.446;2022-11-23T12:01:55;32.67;;;5.88;;
35048;SDS011;21236;48.740;-3.446;2022-11-23T12:04:26;31.85;;;5.35;;
35048;SDS011;21236;48.740;-3.446;2022-11-23T12:09:36;36.60;;;6.20;;
35048;SDS011;21236;48.740;-3.446;2022-11-23T12:12:03;29.02;;;4.93;;
35048;SDS011;21236;48.740;-3.446;2022-11-23T12:14:30;22.98;;;4.40;;
35048;SDS011;21236;48.740;-3.446;2022-11-23T12:19:24;31.65;;;6.75;;
35048;SDS011;21236;48.740;-3.446;2022-11-23T12:29:58;36.10;;;5.63;;
35048;SDS011;21236;48.740;-3.446;2022-11-23T12:42:42;25.45;;;5.43;;
35048;SDS011;21236;48.740;-3.446;2022-11-23T12:55:36;28.77;;;5.25;;
35048;SDS011;21236;48.740;-3.446;2022-11-23T13:00:41;29.48;;;5.30;;
35048;SDS011;21236;48.740;-3.446;2022-11-23T13:14:15;27.02;;;5.22;;
35048;SDS011;21236;48.740;-3.446;2022-11-23T13:21:50;31.65;;;7.03;;
35048;SDS011;21236;48.740;-3.446;2022-11-23T13:34:55;38.70;;;6.53;;
35048;SDS011;21236;48.740;-3.446;2022-11-23T13:37:21;34.40;;;6.03;;
35048;SDS011;21236;48.740;-3.446;2022-11-23T13:42:21;33.60;;;6.13;;
35048;SDS011;21236;48.740;-3.446;2022-11-23T13:45:02;35.05;;;6.75;;
35048;SDS011;21236;48.740;-3.446;2022-11-23T13:47:34;28.83;;;6.85;;
35048;SDS011;21236;48.740;-3.446;2022-11-23T13:50:07;28.02;;;7.30;;
35048;SDS011;21236;48.740;-3.446;2022-11-23T13:52:34;32.10;;;5.70;;
35048;SDS011;21236;48.740;-3.446;2022-11-23T13:57:29;29.60;;;6.90;;
35048;SDS011;21236;48.740;-3.446;2022-11-23T14:02:40;28.08;;;5.85;;
35048;SDS011;21236;48.740;-3.446;2022-11-23T14:07:51;31.65;;;5.28;;
35048;SDS011;21236;48.740;-3.446;2022-11-23T14:10:20;34.58;;;6.28;;
35048;SDS011;21236;48.740;-3.446;2022-11-23T14:41:19;36.25;;;5.72;;
35048;SDS011;21236;48.740;-3.446;2022-11-23T14:43:46;29.63;;;6.00;;
35048;SDS011;21236;48.740;-3.446;2022-11-23T14:46:17;38.55;;;6.40;;
35048;SDS011;21236;48.740;-3.446;2022-11-23T14:48:44;34.25;;;6.30;;
35048;SDS011;21236;48.740;-3.446;2022-11-23T14:51:12;44.45;;;5.78;;
35048;SDS011;21236;48.740;-3.446;2022-11-23T14:53:39;29.02;;;6.90;;
35048;SDS011;21236;48.740;-3.446;2022-11-23T14:56:14;30.30;;;6.90;;
35048;SDS011;21236;48.740;-3.446;2022-11-23T14:58:41;33.53;;;6.65;;
35048;SDS011;21236;48.740;-3.446;2022-11-23T15:01:08;27.00;;;5.97;;
35048;SDS011;21236;48.740;-3.446;2022-11-23T15:03:38;38.78;;;7.68;;
35048;SDS011;21236;48.740;-3.446;2022-11-23T15:06:09;43.53;;;6.28;;
35048;SDS011;21236;48.740;-3.446;2022-11-23T15:11:07;28.02;;;5.45;;
35048;SDS011;21236;48.740;-3.446;2022-11-23T15:13:46;25.95;;;5.10;;
35048;SDS011;21236;48.740;-3.446;2022-11-23T15:16:13;23.08;;;3.75;;
35048;SDS011;21236;48.740;-3.446;2022-11-23T15:18:40;29.02;;;5.60;;
35048;SDS011;21236;48.740;-3.446;2022-11-23T15:21:13;28.27;;;4.93;;
35048;SDS011;21236;48.740;-3.446;2022-11-23T15:23:46;26.65;;;4.65;;
35048;SDS011;21236;48.740;-3.446;2022-11-23T15:26:17;21.38;;;4.93;;
35048;SDS011;21236;48.740;-3.446;2022-11-23T15:28:44;20.77;;;4.80;;
35048;SDS011;21236;48.740;-3.446;2022-11-23T15:33:57;30.65;;;6.85;;
35048;SDS011;21236;48.740;-3.446;2022-11-23T15:36:25;31.08;;;5.28;;
35048;SDS011;21236;48.740;-3.446;2022-11-23T15:38:53;23.15;;;4.28;;
35048;SDS011;21236;48.740;-3.446;2022-11-23T15:41:20;20.10;;;4.60;;
35048;SDS011;21236;48.740;-3.446;2022-11-23T15:43:53;18.55;;;4.50;;
35048;SDS011;21236;48.740;-3.446;2022-11-23T15:46:19;25.95;;;3.97;;
35048;SDS011;21236;48.740;-3.446;2022-11-23T15:48:50;18.40;;;4.10;;
35048;SDS011;21236;48.740;-3.446;2022-11-23T15:51:21;28.38;;;6.03;;
35048;SDS011;21236;48.740;-3.446;2022-11-23T15:53:49;25.02;;;4.18;;
35048;SDS011;21236;48.740;-3.446;2022-11-23T15:56:34;24.55;;;4.25;;
35048;SDS011;21236;48.740;-3.446;2022-11-23T15:59:05;19.35;;;4.45;;
35048;SDS011;21236;48.740;-3.446;2022-11-23T16:01:40;18.25;;;3.78;;
35048;SDS011;21236;48.740;-3.446;2022-11-23T16:04:24;26.95;;;5.18;;
35048;SDS011;21236;48.740;-3.446;2022-11-23T16:06:51;24.13;;;3.90;;
35048;SDS011;21236;48.740;-3.446;2022-11-23T16:11:59;20.08;;;3.75;;
35048;SDS011;21236;48.740;-3.446;2022-11-23T16:14:29;24.40;;;4.97;;
35048;SDS011;21236;48.740;-3.446;2022-11-23T16:17:18;17.80;;;3.85;;
35048;SDS011;21236;48.740;-3.446;2022-11-23T16:19:47;21.60;;;3.80;;
35048;SDS011;21236;48.740;-3.446;2022-11-23T16:22:19;21.10;;;3.80;;
35048;SDS011;21236;48.740;-3.446;2022-11-23T16:24:46;17.70;;;4.30;;
35048;SDS011;21236;48.740;-3.446;2022-11-23T16:27:14;22.80;;;4.78;;
35048;SDS011;21236;48.740;-3.446;2022-11-23T16:29:41;23.50;;;4.32;;
35048;SDS011;21236;48.740;-3.446;2022-11-23T16:32:21;31.90;;;5.40;;
35048;SDS011;21236;48.740;-3.446;2022-11-23T16:34:48;29.63;;;5.70;;
35048;SDS011;21236;48.740;-3.446;2022-11-23T16:37:14;27.55;;;5.00;;
35048;SDS011;21236;48.740;-3.446;2022-11-23T16:39:40;34.95;;;7.82;;
35048;SDS011;21236;48.740;-3.446;2022-11-23T16:42:10;26.52;;;5.72;;
35048;SDS011;21236;48.740;-3.446;2022-11-23T16:44:36;31.67;;;6.35;;
35048;SDS011;21236;48.740;-3.446;2022-11-23T16:47:22;33.78;;;5.20;;
35048;SDS011;21236;48.740;-3.446;2022-11-23T16:49:48;36.50;;;7.85;;
35048;SDS011;21236;48.740;-3.446;2022-11-23T16:52:15;35.05;;;7.20;;
35048;SDS011;21236;48.740;-3.446;2022-11-23T16:54:41;39.38;;;8.77;;
35048;SDS011;21236;48.740;-3.446;2022-11-23T16:57:09;30.23;;;6.32;;
35048;SDS011;21236;48.740;-3.446;2022-11-23T16:59:39;36.58;;;7.88;;
35048;SDS011;21236;48.740;-3.446;2022-11-23T17:02:07;35.08;;;6.72;;
35048;SDS011;21236;48.740;-3.446;2022-11-23T17:04:35;39.78;;;6.00;;
35048;SDS011;21236;48.740;-3.446;2022-11-23T17:07:01;38.72;;;6.22;;
35048;SDS011;21236;48.740;-3.446;2022-11-23T17:09:28;37.08;;;6.93;;
35048;SDS011;21236;48.740;-3.446;2022-11-23T17:11:54;31.73;;;6.70;;
35048;SDS011;21236;48.740;-3.446;2022-11-23T17:14:20;43.08;;;5.32;;
35048;SDS011;21236;48.740;-3.446;2022-11-23T17:16:48;26.25;;;5.57;;
35048;SDS011;21236;48.740;-3.446;2022-11-23T17:19:14;31.92;;;5.97;;
35048;SDS011;21236;48.740;-3.446;2022-11-23T17:21:41;32.10;;;5.00;;
35048;SDS011;21236;48.740;-3.446;2022-11-23T17:24:08;32.45;;;4.88;;
35048;SDS011;21236;48.740;-3.446;2022-11-23T17:26:36;23.52;;;4.20;;
35048;SDS011;21236;48.740;-3.446;2022-11-23T17:29:04;30.17;;;5.82;;
35048;SDS011;21236;48.740;-3.446;2022-11-23T17:31:30;26.27;;;4.50;;
35048;SDS011;21236;48.740;-3.446;2022-11-23T17:33:56;20.30;;;3.88;;
35048;SDS011;21236;48.740;-3.446;2022-11-23T17:36:23;23.38;;;4.65;;
35048;SDS011;21236;48.740;-3.446;2022-11-23T17:38:49;25.20;;;4.20;;
35048;SDS011;21236;48.740;-3.446;2022-11-23T17:41:16;23.50;;;4.70;;
35048;SDS011;21236;48.740;-3.446;2022-11-23T17:43:42;22.77;;;5.30;;
35048;SDS011;21236;48.740;-3.446;2022-11-23T17:46:21;23.60;;;4.78;;
35048;SDS011;21236;48.740;-3.446;2022-11-23T17:48:49;33.17;;;4.50;;
35048;SDS011;21236;48.740;-3.446;2022-11-23T17:51:16;26.85;;;6.03;;
35048;SDS011;21236;48.740;-3.446;2022-11-23T17:53:42;25.55;;;4.90;;
35048;SDS011;21236;48.740;-3.446;2022-11-23T17:56:14;33.13;;;5.30;;
35048;SDS011;21236;48.740;-3.446;2022-11-23T17:58:41;31.95;;;5.22;;
35048;SDS011;21236;48.740;-3.446;2022-11-23T18:01:10;56.33;;;8.88;;
35048;SDS011;21236;48.740;-3.446;2022-11-23T18:03:36;33.28;;;5.32;;